Time;durP1;ratioP1;P1;durP2;ratioP2;P2;SDS_P1;SDS_P2;PMS_P1;PMS_P2;Temp;Humidity;BMP_temperature;BMP_pressure;BME280_temperature;BME280_humidity;BME280_pressure;Samples;Min_cycle;Max_cycle;Signal;HPM_P1;HPM_P2
2021/07/19 00:00:18;;;;;;;1999.90;999.90;;;;;;;16.96;42.82;101503.25;4838563;29;99063;-73
2021/07/19 00:02:47;;;;;;;1999.90;999.90;;;;;;;17.26;41.83;101500.72;4850867;28;97021;-74
2021/07/19 00:05:17;;;;;;;1999.90;999.90;;;;;;;17.01;42.14;101504.19;4820950;29;97935;-73
2021/07/19 00:07:44;;;;;;;1999.90;999.90;;;;;;;17.30;41.45;101498.94;4824184;29;97795;-72
2021/07/19 00:10:14;;;;;;;1999.90;999.90;;;;;;;17.02;42.01;101498.81;4818901;29;97643;-74
2021/07/19 00:12:45;;;;;;;1999.90;999.90;;;;;;;16.94;42.31;101507.72;4858615;28;96961;-74
2021/07/19 00:15:15;;;;;;;1999.90;999.90;;;;;;;16.87;42.49;101500.50;4827312;29;97211;-74
2021/07/19 00:17:45;;;;;;;1999.90;999.90;;;;;;;16.84;42.43;101496.00;4827387;29;99793;-73
2021/07/19 00:20:13;;;;;;;1999.90;999.90;;;;;;;17.18;41.54;101498.91;4827461;29;98505;-74
2021/07/19 00:22:42;;;;;;;1999.90;999.90;;;;;;;16.89;42.28;101502.31;4830269;29;97029;-74
2021/07/19 00:25:12;;;;;;;1999.90;999.90;;;;;;;16.69;42.63;101506.59;4825250;29;96961;-74
2021/07/19 00:27:44;;;;;;;1999.90;999.90;;;;;;;16.54;42.98;101510.97;4812399;29;102087;-74
2021/07/19 00:30:15;;;;;;;1999.90;999.90;;;;;;;16.88;42.44;101523.81;4841464;29;97647;-73
2021/07/19 00:32:44;;;;;;;1999.90;999.90;;;;;;;16.96;42.11;101525.66;4829150;29;96931;-74
2021/07/19 00:35:12;;;;;;;1999.90;999.90;;;;;;;16.69;42.57;101519.16;4831722;29;96827;-74
2021/07/19 00:37:40;;;;;;;1999.90;999.90;;;;;;;16.57;43.09;101521.72;4828193;29;99334;-73
2021/07/19 00:40:11;;;;;;;1999.90;999.90;;;;;;;16.39;43.11;101530.53;4859708;28;98640;-76
2021/07/19 00:42:40;;;;;;;1999.90;999.90;;;;;;;16.29;43.16;101519.72;4832755;29;96798;-73
2021/07/19 00:45:12;;;;;;;1999.90;999.90;;;;;;;16.19;43.37;101523.19;4861243;28;96833;-75
2021/07/19 00:47:40;;;;;;;1999.90;999.90;;;;;;;16.48;42.36;101521.66;4824770;29;98063;-73
2021/07/19 00:50:09;;;;;;;1999.90;999.90;;;;;;;16.18;42.75;101524.94;4854513;28;97942;-71
2021/07/19 00:52:38;;;;;;;1999.90;999.90;;;;;;;16.46;41.77;101518.06;4806608;29;98461;-72
2021/07/19 00:55:08;;;;;;;1999.90;999.90;;;;;;;16.20;42.43;101516.91;4851808;28;98668;-72
2021/07/19 00:57:36;;;;;;;1999.90;999.90;;;;;;;16.08;42.68;101518.59;4838067;29;99474;-72
2021/07/19 01:00:07;;;;;;;1999.90;999.90;;;;;;;16.02;42.70;101526.59;4822732;29;98725;-71
2021/07/19 01:02:39;;;;;;;1999.90;999.90;;;;;;;15.96;43.09;101520.19;4822617;29;98018;-72
2021/07/19 01:05:09;;;;;;;1999.90;999.90;;;;;;;16.24;42.11;101524.09;4850400;28;97678;-72
2021/07/19 01:07:40;;;;;;;1999.90;999.90;;;;;;;16.35;41.35;101530.50;4851151;28;97734;-72
2021/07/19 01:10:13;;;;;;;1999.90;999.90;;;;;;;16.36;41.26;101524.25;4834628;29;101487;-72
2021/07/19 01:12:43;;;;;;;1999.90;999.90;;;;;;;16.28;41.25;101529.53;4822005;29;98393;-72
2021/07/19 01:15:11;;;;;;;1999.90;999.90;;;;;;;16.26;41.33;101520.56;4818670;29;97903;-72
2021/07/19 01:17:44;;;;;;;1999.90;999.90;;;;;;;16.26;41.11;101514.28;4851026;28;97275;-72
2021/07/19 01:20:12;;;;;;;1999.90;999.90;;;;;;;16.22;41.28;101520.50;4821524;29;98601;-71
2021/07/19 01:23:03;;;;;;;1999.90;999.90;;;;;;;16.24;40.92;101530.38;4819637;29;98847;-72
2021/07/19 01:25:54;;;;;;;1999.90;999.90;;;;;;;16.28;40.78;101531.31;4819976;29;97940;-72
2021/07/19 01:28:30;;;;;;;1999.90;999.90;;;;;;;16.25;40.80;101532.19;4803752;29;98016;-71
2021/07/19 01:31:01;;;;;;;1999.90;999.90;;;;;;;16.25;40.59;101534.88;4850082;28;98341;-72
2021/07/19 01:33:31;;;;;;;1999.90;999.90;;;;;;;16.23;40.53;101525.00;4834655;29;97210;-71
2021/07/19 01:36:00;;;;;;;1999.90;999.90;;;;;;;16.25;40.42;101528.63;4834931;29;97846;-75
2021/07/19 01:38:28;;;;;;;1999.90;999.90;;;;;;;16.26;40.32;101527.72;4833180;29;101412;-74
2021/07/19 01:40:59;;;;;;;1999.90;999.90;;;;;;;16.24;40.31;101529.47;4820154;29;100027;-74
2021/07/19 01:43:28;;;;;;;1999.90;999.90;;;;;;;16.24;39.76;101533.06;4821962;29;97290;-74
2021/07/19 01:45:57;;;;;;;1999.90;999.90;;;;;;;16.25;39.66;101534.88;4832814;29;98788;-74
2021/07/19 01:48:30;;;;;;;1999.90;999.90;;;;;;;16.26;39.58;101535.78;4827417;28;98858;-74
2021/07/19 01:50:59;;;;;;;1999.90;999.90;;;;;;;16.22;40.02;101544.69;4820186;29;98336;-74
2021/07/19 01:57:41;;;;;;;1999.90;999.90;;;;;;;16.06;40.04;101551.69;4819083;29;97872;-72
2021/07/19 02:00:13;;;;;;;1999.90;999.90;;;;;;;16.02;39.92;101556.13;4850128;28;98977;-72
2021/07/19 02:02:52;;;;;;;1999.90;999.90;;;;;;;15.97;40.16;101554.25;4834727;28;97935;-74
2021/07/19 02:05:24;;;;;;;1999.90;999.90;;;;;;;15.94;39.80;101556.91;4847996;28;98106;-74
2021/07/19 02:08:01;;;;;;;1999.90;999.90;;;;;;;15.90;39.74;101553.25;4820326;29;97215;-74
2021/07/19 02:10:32;;;;;;;1999.90;999.90;;;;;;;15.90;39.72;101547.88;4819466;29;99191;-75
2021/07/19 02:13:06;;;;;;;1999.90;999.90;;;;;;;15.89;39.71;101553.25;4838951;29;97554;-74
2021/07/19 02:15:41;;;;;;;1999.90;999.90;;;;;;;15.86;39.99;101553.22;4821558;29;97924;-74
2021/07/19 02:18:13;;;;;;;1999.90;999.90;;;;;;;15.85;40.03;101554.06;4839247;29;97753;-71
2021/07/19 02:20:44;;;;;;;1999.90;999.90;;;;;;;15.80;39.96;101554.03;4852925;28;98003;-74
2021/07/19 02:23:19;;;;;;;1999.90;999.90;;;;;;;15.74;39.89;101548.59;4825166;29;98174;-74
2021/07/19 02:25:55;;;;;;;1999.90;999.90;;;;;;;15.66;39.92;101557.44;4823293;29;96939;-74
2021/07/19 02:28:23;;;;;;;1999.90;999.90;;;;;;;15.62;40.00;101555.59;4813448;29;97565;-75
2021/07/19 02:30:55;;;;;;;1999.90;999.90;;;;;;;15.63;40.25;101558.28;4822035;29;98968;-75
2021/07/19 02:33:23;;;;;;;1999.90;999.90;;;;;;;15.64;39.90;101561.88;4822699;29;99000;-72
2021/07/19 02:35:53;;;;;;;1999.90;999.90;;;;;;;15.62;40.04;101564.53;4803792;29;97271;-73
2021/07/19 02:38:28;;;;;;;1999.90;999.90;;;;;;;15.62;40.05;101569.00;4821810;29;97360;-74
2021/07/19 02:41:05;;;;;;;1999.90;999.90;;;;;;;15.62;39.92;101574.38;4821859;29;98238;-73
2021/07/19 02:43:35;;;;;;;1999.90;999.90;;;;;;;15.60;40.05;101563.63;4838994;29;98868;-74
2021/07/19 02:46:06;;;;;;;1999.90;999.90;;;;;;;15.60;40.04;101562.72;4852663;28;98630;-72
2021/07/19 02:48:36;;;;;;;1999.90;999.90;;;;;;;15.61;40.05;101573.47;4854662;28;97747;-70
2021/07/19 02:51:05;;;;;;;1999.90;999.90;;;;;;;15.62;39.85;101569.00;4823649;29;97903;-71
2021/07/19 02:53:36;;;;;;;1999.90;999.90;;;;;;;15.62;39.51;101572.59;4808305;29;99574;-71
2021/07/19 02:56:05;;;;;;;1999.90;999.90;;;;;;;15.60;39.84;101573.44;4852932;28;98114;-72
2021/07/19 02:58:34;;;;;;;1999.90;999.90;;;;;;;15.58;40.07;101581.47;4853574;28;97512;-74
2021/07/19 03:01:09;;;;;;;1999.90;999.90;;;;;;;15.57;40.06;101579.69;4837294;29;99553;-75
2021/07/19 03:03:38;;;;;;;1999.90;999.90;;;;;;;15.56;40.07;101585.91;4839856;29;100132;-75
2021/07/19 03:06:09;;;;;;;1999.90;999.90;;;;;;;15.56;40.07;101588.59;4836591;29;98518;-74
2021/07/19 03:08:40;;;;;;;1999.90;999.90;;;;;;;15.52;40.14;101584.06;4820766;29;98889;-74
2021/07/19 03:11:17;;;;;;;1999.90;999.90;;;;;;;15.46;40.18;101589.38;4822045;29;98502;-75
2021/07/19 03:13:51;;;;;;;1999.90;999.90;;;;;;;15.45;40.02;101579.50;4822956;29;98034;-74
2021/07/19 03:16:21;;;;;;;1999.90;999.90;;;;;;;15.47;40.04;101583.13;4853801;28;98003;-74
2021/07/19 03:18:50;;;;;;;1999.90;999.90;;;;;;;15.48;39.89;101582.25;4820463;29;97281;-74
2021/07/19 03:21:20;;;;;;;1999.90;999.90;;;;;;;15.48;39.61;101579.56;4836328;29;99859;-73
2021/07/19 03:23:58;;;;;;;1999.90;999.90;;;;;;;15.46;39.57;101584.00;4822957;29;97689;-73
2021/07/19 03:26:27;;;;;;;1999.90;999.90;;;;;;;15.48;39.99;101582.25;4806532;29;97858;-74
2021/07/19 03:28:56;;;;;;;1999.90;999.90;;;;;;;15.50;39.73;101576.91;4853923;28;97622;-73
2021/07/19 03:31:26;;;;;;;1999.90;999.90;;;;;;;15.51;39.58;101579.59;4821444;29;98137;-74
2021/07/19 03:33:55;;;;;;;1999.90;999.90;;;;;;;15.54;39.63;101585.00;4820586;29;100003;-71
2021/07/19 03:36:25;;;;;;;1999.90;999.90;;;;;;;15.55;39.71;101586.81;4827770;29;97992;-72
2021/07/19 03:38:53;;;;;;;1999.90;999.90;;;;;;;15.54;39.84;101593.03;4837952;29;97172;-72
2021/07/19 03:41:30;;;;;;;1999.90;999.90;;;;;;;15.48;39.71;101587.63;4836251;29;98588;-72
2021/07/19 03:44:03;;;;;;;1999.90;999.90;;;;;;;15.43;39.77;101580.38;4836479;29;99087;-71
2021/07/19 03:46:33;;;;;;;1999.90;999.90;;;;;;;15.41;39.62;101588.38;4821445;29;97675;-72
2021/07/19 03:49:03;;;;;;;1999.90;999.90;;;;;;;15.42;39.81;101587.53;4837131;29;97542;-72
2021/07/19 03:51:34;;;;;;;1999.90;999.90;;;;;;;15.44;39.83;101582.19;4849981;28;98117;-71
2021/07/19 03:54:05;;;;;;;1999.90;999.90;;;;;;;15.45;39.83;101579.50;4835300;29;98332;-72
2021/07/19 03:56:35;;;;;;;1999.90;999.90;;;;;;;15.45;40.24;101578.63;4852062;28;97422;-72
2021/07/19 03:59:05;;;;;;;1999.90;999.90;;;;;;;15.44;40.21;101583.09;4853751;28;97765;-72
2021/07/19 04:01:36;;;;;;;1999.90;999.90;;;;;;;15.42;39.93;101579.47;4831424;28;98877;-71
2021/07/19 04:04:07;;;;;;;1999.90;999.90;;;;;;;15.42;39.78;101584.84;4847566;28;97642;-75
2021/07/19 04:06:46;;;;;;;1999.90;999.90;;;;;;;15.34;40.00;101581.13;4834112;28;97059;-75
2021/07/19 04:09:17;;;;;;;1999.90;999.90;;;;;;;15.20;40.20;101579.09;4835814;29;97349;-75
2021/07/19 04:11:47;;;;;;;1999.90;999.90;;;;;;;15.09;40.13;101581.63;4850151;28;100057;-74
2021/07/19 04:14:16;;;;;;;1999.90;999.90;;;;;;;15.06;40.56;101577.09;4836083;29;99498;-74
2021/07/19 04:16:48;;;;;;;1999.90;999.90;;;;;;;14.97;40.27;101581.44;4852936;28;98823;-74
2021/07/19 04:19:16;;;;;;;1999.90;999.90;;;;;;;14.90;40.54;101592.94;4824606;29;97245;-75
2021/07/19 04:21:46;;;;;;;1999.90;999.90;;;;;;;14.78;40.55;101590.06;4835423;29;99376;-75
2021/07/19 04:24:22;;;;;;;1999.90;999.90;;;;;;;14.77;40.69;101588.25;4851593;28;98097;-74
2021/07/19 04:26:52;;;;;;;1999.90;999.90;;;;;;;14.74;40.58;101594.47;4825922;28;97945;-74
2021/07/19 04:29:23;;;;;;;1999.90;999.90;;;;;;;14.69;40.49;101597.94;4822590;29;96904;-75
2021/07/19 04:31:54;;;;;;;1999.90;999.90;;;;;;;14.69;40.54;101596.16;4835867;29;99187;-75
2021/07/19 04:34:29;;;;;;;1999.90;999.90;;;;;;;14.77;40.56;101602.53;4820637;29;97998;-75
2021/07/19 04:37:03;;;;;;;1999.90;999.90;;;;;;;14.77;40.03;101607.03;4821903;29;97403;-75
2021/07/19 04:39:37;;;;;;;1999.90;999.90;;;;;;;14.68;40.04;101613.09;4837270;29;98105;-75
2021/07/19 04:42:08;;;;;;;1999.90;999.90;;;;;;;14.58;40.18;101599.53;4836243;29;99340;-75
2021/07/19 04:44:36;;;;;;;1999.90;999.90;;;;;;;14.49;40.54;101604.69;4821806;29;98542;-76
2021/07/19 04:47:07;;;;;;;1999.90;999.90;;;;;;;14.45;41.05;101608.16;4821074;29;97428;-74
2021/07/19 04:49:37;;;;;;;1999.90;999.90;;;;;;;14.38;40.87;101603.59;4822975;29;97612;-75
2021/07/19 04:52:06;;;;;;;1999.90;999.90;;;;;;;14.40;41.08;101612.53;4834309;29;99165;-73
2021/07/19 04:54:38;;;;;;;1999.90;999.90;;;;;;;14.49;40.80;101615.41;4820347;29;100516;-74
2021/07/19 04:57:07;;;;;;;1999.90;999.90;;;;;;;14.59;41.01;101617.41;4820712;29;97488;-74
2021/07/19 04:59:39;;;;;;;1999.90;999.90;;;;;;;14.64;40.87;101613.94;4837726;29;97545;-73
2021/07/19 05:02:17;;;;;;;1999.90;999.90;;;;;;;14.68;40.51;101607.75;4821296;29;98285;-73
2021/07/19 05:04:48;;;;;;;1999.90;999.90;;;;;;;14.60;40.66;101613.84;4820592;29;98441;-73
2021/07/19 05:07:17;;;;;;;1999.90;999.90;;;;;;;14.48;40.97;101610.94;4820858;29;98181;-73
2021/07/19 05:09:46;;;;;;;1999.90;999.90;;;;;;;14.39;40.98;101614.31;4822818;29;97769;-74
2021/07/19 05:12:17;;;;;;;1999.90;999.90;;;;;;;14.40;41.29;101615.22;4820877;29;99001;-74
2021/07/19 05:14:45;;;;;;;1999.90;999.90;;;;;;;14.45;41.44;101606.41;4821370;29;97834;-73
2021/07/19 05:17:15;;;;;;;1999.90;999.90;;;;;;;14.51;41.46;101613.66;4851075;28;98201;-74
2021/07/19 05:19:44;;;;;;;1999.90;999.90;;;;;;;14.55;41.45;101607.47;4817604;29;96791;-74
2021/07/19 05:22:12;;;;;;;1999.90;999.90;;;;;;;14.53;41.36;101601.19;4820310;29;100297;-74
2021/07/19 05:24:41;;;;;;;1999.90;999.90;;;;;;;14.49;41.22;101605.59;4820405;29;98055;-73
2021/07/19 05:27:10;;;;;;;1999.90;999.90;;;;;;;14.42;41.51;101608.13;4815961;29;99421;-73
2021/07/19 05:29:39;;;;;;;1999.90;999.90;;;;;;;14.32;41.42;101604.38;4822614;28;97184;-74
2021/07/19 05:32:09;;;;;;;1999.90;999.90;;;;;;;14.23;41.82;101601.50;4814106;29;99484;-73
2021/07/19 05:34:39;;;;;;;1999.90;999.90;;;;;;;14.23;41.79;101601.50;4812739;29;100296;-73
2021/07/19 05:37:07;;;;;;;1999.90;999.90;;;;;;;14.27;42.03;101607.81;4847644;28;97863;-73
2021/07/19 05:39:35;;;;;;;1999.90;999.90;;;;;;;14.30;42.12;101610.59;4814833;29;97691;-73
2021/07/19 05:42:03;;;;;;;1999.90;999.90;;;;;;;14.38;41.89;101608.94;4813165;29;98051;-73
2021/07/19 05:44:31;;;;;;;1999.90;999.90;;;;;;;14.49;41.96;101612.72;4850600;28;99153;-72
2021/07/19 05:47:00;;;;;;;1999.90;999.90;;;;;;;14.58;41.85;101615.59;4828578;28;97971;-72
2021/07/19 05:49:30;;;;;;;1999.90;999.90;;;;;;;14.68;41.80;101612.22;4814275;29;97685;-71
2021/07/19 05:51:59;;;;;;;1999.90;999.90;;;;;;;14.76;41.36;101610.56;4850995;28;100736;-72
2021/07/19 05:54:27;;;;;;;1999.90;999.90;;;;;;;14.81;41.03;101622.28;4832972;28;98289;-72
2021/07/19 05:56:55;;;;;;;1999.90;999.90;;;;;;;14.81;41.32;101615.13;4845834;28;97531;-74
2021/07/19 05:59:23;;;;;;;1999.90;999.90;;;;;;;14.81;41.40;101614.25;4815281;29;97976;-73
2021/07/19 06:01:50;;;;;;;1999.90;999.90;;;;;;;14.87;41.43;101625.03;4814880;29;99950;-73
2021/07/19 06:04:19;;;;;;;1999.90;999.90;;;;;;;14.88;40.94;101622.38;4815992;29;99049;-73
2021/07/19 06:06:47;;;;;;;1999.90;999.90;;;;;;;14.75;41.08;101630.19;4814628;29;99226;-73
2021/07/19 06:09:16;;;;;;;1999.90;999.90;;;;;;;14.63;41.32;101625.53;4816851;29;97646;-74
2021/07/19 06:11:44;;;;;;;1999.90;999.90;;;;;;;14.67;41.29;101627.38;4818162;29;98248;-73
2021/07/19 06:14:12;;;;;;;1999.90;999.90;;;;;;;14.69;41.52;101619.38;4848280;28;100057;-73
2021/07/19 06:16:40;;;;;;;1999.90;999.90;;;;;;;14.66;41.43;101611.28;4827990;29;99125;-73
2021/07/19 06:19:08;;;;;;;1999.90;999.90;;;;;;;14.60;41.48;101620.13;4816442;29;97326;-73
2021/07/19 06:21:36;;;;;;;1999.90;999.90;;;;;;;14.59;41.93;101620.09;4820117;29;97700;-74
2021/07/19 06:24:04;;;;;;;1999.90;999.90;;;;;;;14.66;41.79;101619.31;4818649;29;99383;-73
2021/07/19 06:26:34;;;;;;;1999.90;999.90;;;;;;;14.75;41.78;101620.41;4820829;29;96956;-73
2021/07/19 06:29:02;;;;;;;1999.90;999.90;;;;;;;14.84;41.98;101628.59;4835128;29;98078;-73
2021/07/19 06:31:29;;;;;;;1999.90;999.90;;;;;;;14.92;41.32;101624.25;4818743;29;96814;-72
2021/07/19 06:33:57;;;;;;;1999.90;999.90;;;;;;;15.03;41.03;101627.09;4820243;29;97930;-72
2021/07/19 06:36:25;;;;;;;1999.90;999.90;;;;;;;15.11;40.81;101637.09;4818623;29;97497;-72
2021/07/19 06:38:53;;;;;;;1999.90;999.90;;;;;;;15.21;40.36;101630.06;4850069;28;96956;-72
2021/07/19 06:41:21;;;;;;;1999.90;999.90;;;;;;;15.27;40.39;101627.50;4820446;29;99710;-72
2021/07/19 06:43:50;;;;;;;1999.90;999.90;;;;;;;15.30;40.05;101624.91;4848823;28;97589;-73
2021/07/19 06:46:18;;;;;;;1999.90;999.90;;;;;;;15.22;39.06;101628.28;4819495;29;97859;-74
2021/07/19 06:48:46;;;;;;;1999.90;999.90;;;;;;;15.16;38.94;101622.84;4813727;29;98428;-73
2021/07/19 06:51:13;;;;;;;1999.90;999.90;;;;;;;15.17;39.12;101629.13;4820237;29;98210;-73
2021/07/19 06:53:41;;;;;;;1999.90;999.90;;;;;;;15.25;38.61;101623.88;4818926;29;99748;-73
2021/07/19 06:56:09;;;;;;;1999.90;999.90;;;;;;;15.28;38.34;101629.31;4821819;29;97503;-76
2021/07/19 06:58:37;;;;;;;1999.90;999.90;;;;;;;15.35;38.17;101622.28;4829757;29;97542;-75
2021/07/19 07:01:06;;;;;;;1999.90;999.90;;;;;;;15.35;38.55;101617.81;4827203;29;97694;-74
2021/07/19 07:03:34;;;;;;;1999.90;999.90;;;;;;;15.39;38.05;101611.63;4829845;29;97811;-74
2021/07/19 07:06:22;;;;;;;1999.90;999.90;;;;;;;15.44;37.98;101614.38;4855525;28;97294;-75
2021/07/19 07:08:50;;;;;;;1999.90;999.90;;;;;;;15.50;37.51;101619.81;4828410;29;98410;-75
2021/07/19 07:11:17;;;;;;;1999.90;999.90;;;;;;;15.55;36.83;101618.09;4829042;29;98217;-75
2021/07/19 07:13:45;;;;;;;1999.90;999.90;;;;;;;15.56;36.66;101623.47;4828887;29;97995;-74
2021/07/19 07:16:14;;;;;;;1999.90;999.90;;;;;;;15.49;36.58;101623.38;4827034;29;97033;-74
2021/07/19 07:18:42;;;;;;;1999.90;999.90;;;;;;;15.49;36.88;101616.22;4826751;29;98899;-74
2021/07/19 07:21:10;;;;;;;1999.90;999.90;;;;;;;15.52;36.64;101620.75;4826057;29;100636;-74
2021/07/19 07:23:37;;;;;;;1999.90;999.90;;;;;;;15.55;36.54;101624.38;4829325;29;97974;-72
2021/07/19 07:26:06;;;;;;;1999.90;999.90;;;;;;;15.61;36.58;101629.81;4827543;29;98029;-72
2021/07/19 07:28:33;;;;;;;1999.90;999.90;;;;;;;15.64;37.12;101627.19;4841158;29;97541;-75
2021/07/19 07:31:01;;;;;;;1999.90;999.90;;;;;;;15.66;36.80;101625.44;4809317;29;99438;-72
2021/07/19 07:33:31;;;;;;;1999.90;999.90;;;;;;;15.68;37.38;101625.44;4827957;29;98181;-72
2021/07/19 07:35:58;;;;;;;1999.90;999.90;;;;;;;15.60;37.39;101621.75;4827113;29;97342;-72
2021/07/19 07:38:27;;;;;;;1999.90;999.90;;;;;;;15.57;37.11;101614.56;4827353;29;98151;-74
2021/07/19 07:40:55;;;;;;;1999.90;999.90;;;;;;;15.54;37.39;101611.81;4827448;29;97882;-73
2021/07/19 07:43:23;;;;;;;1999.90;999.90;;;;;;;15.51;37.44;101622.53;4844093;28;99638;-73
2021/07/19 07:45:51;;;;;;;1999.90;999.90;;;;;;;15.53;37.49;101625.22;4809571;29;97989;-72
2021/07/19 07:48:18;;;;;;;1999.90;999.90;;;;;;;15.58;37.44;101624.41;4826992;29;97902;-73
2021/07/19 07:50:47;;;;;;;1999.90;999.90;;;;;;;15.63;37.49;101616.44;4827879;29;99507;-72
2021/07/19 07:53:15;;;;;;;1999.90;999.90;;;;;;;15.67;37.13;101624.53;4827142;29;99573;-73
2021/07/19 07:55:43;;;;;;;1999.90;999.90;;;;;;;15.67;37.01;101620.94;4828143;29;98949;-73
2021/07/19 07:58:11;;;;;;;1999.90;999.90;;;;;;;15.72;36.86;101629.97;4826160;29;98646;-74
2021/07/19 08:00:38;;;;;;;1999.90;999.90;;;;;;;15.69;36.41;101617.41;4858207;28;97921;-74
2021/07/19 08:03:06;;;;;;;1999.90;999.90;;;;;;;15.64;36.88;101623.59;4842380;29;100286;-74
2021/07/19 08:05:34;;;;;;;1999.90;999.90;;;;;;;15.61;37.04;101624.44;4825732;29;97279;-73
2021/07/19 08:08:04;;;;;;;1999.90;999.90;;;;;;;15.66;37.10;101621.84;4826082;29;96928;-73
2021/07/19 08:10:32;;;;;;;1999.90;999.90;;;;;;;15.72;36.40;101621.94;4827617;29;97116;-74
2021/07/19 08:12:59;;;;;;;1999.90;999.90;;;;;;;15.74;36.60;101614.81;4857061;28;99767;-73
2021/07/19 08:15:27;;;;;;;1999.90;999.90;;;;;;;15.77;35.80;101610.38;4826220;29;97143;-73
2021/07/19 08:17:55;;;;;;;1999.90;999.90;;;;;;;15.83;35.69;101606.88;4825565;29;96839;-74
2021/07/19 08:20:23;;;;;;;1999.90;999.90;;;;;;;15.86;35.78;101607.81;4827966;29;98924;-74
2021/07/19 08:22:51;;;;;;;1999.90;999.90;;;;;;;15.90;35.40;101606.06;4827292;29;98051;-73
2021/07/19 08:25:20;;;;;;;1999.90;999.90;;;;;;;15.91;34.96;101606.06;4840322;29;97882;-74
2021/07/19 08:27:49;;;;;;;1999.90;999.90;;;;;;;15.92;34.66;101606.97;4858481;28;96913;-74
2021/07/19 08:30:18;;;;;;;1999.90;999.90;;;;;;;15.89;34.74;101606.91;4827328;29;97700;-74
2021/07/19 08:32:46;;;;;;;1999.90;999.90;;;;;;;15.89;34.27;101604.25;4857546;28;97134;-73
2021/07/19 08:35:14;;;;;;;1999.90;999.90;;;;;;;15.91;34.01;101602.47;4824841;29;97321;-73
2021/07/19 08:37:45;;;;;;;1999.90;999.90;;;;;;;15.86;34.15;101599.75;4825889;29;98346;-72
2021/07/19 08:40:15;;;;;;;1999.90;999.90;;;;;;;15.79;34.13;101599.66;4828390;29;98958;-73
2021/07/19 08:42:44;;;;;;;1999.90;999.90;;;;;;;15.74;34.48;101599.56;4824543;29;97272;-74
2021/07/19 08:45:13;;;;;;;1999.90;999.90;;;;;;;15.72;34.25;101601.34;4826077;29;97136;-73
2021/07/19 08:47:46;;;;;;;1999.90;999.90;;;;;;;15.77;34.17;101605.00;4825737;29;97361;-73
2021/07/19 08:50:15;;;;;;;1999.90;999.90;;;;;;;15.83;33.93;101601.50;4810964;29;99334;-73
2021/07/19 08:52:47;;;;;;;1999.90;999.90;;;;;;;15.89;33.88;101598.88;4826841;29;97433;-73
2021/07/19 08:55:17;;;;;;;1999.90;999.90;;;;;;;15.95;34.13;101590.91;4827384;29;97161;-74
2021/07/19 08:57:49;;;;;;;1999.90;999.90;;;;;;;15.99;34.34;101588.28;4839794;29;99288;-74
2021/07/19 09:00:18;;;;;;;1999.90;999.90;;;;;;;16.02;34.34;101593.72;4840119;29;100368;-74
2021/07/19 09:02:46;;;;;;;1999.90;999.90;;;;;;;16.04;34.17;101594.63;4827014;29;97895;-74
2021/07/19 09:05:15;;;;;;;1999.90;999.90;;;;;;;16.04;34.28;101591.94;4839714;29;97357;-74
2021/07/19 09:07:44;;;;;;;1999.90;999.90;;;;;;;15.94;34.54;101598.03;4823929;29;97335;-73
2021/07/19 09:10:12;;;;;;;1999.90;999.90;;;;;;;15.92;34.23;101604.28;4827492;29;98222;-74
2021/07/19 09:12:42;;;;;;;1999.90;999.90;;;;;;;15.91;34.40;101598.00;4826293;29;98815;-73
2021/07/19 09:15:14;;;;;;;1999.90;999.90;;;;;;;15.89;34.88;101602.47;4856253;28;97275;-73
2021/07/19 09:17:42;;;;;;;1999.90;999.90;;;;;;;15.88;34.52;101598.00;4825611;29;97700;-73
2021/07/19 09:20:13;;;;;;;1999.90;999.90;;;;;;;15.87;35.02;101593.50;4844815;28;98804;-73
2021/07/19 09:22:41;;;;;;;1999.90;999.90;;;;;;;15.91;34.69;101598.00;4824543;29;98577;-75
2021/07/19 09:25:11;;;;;;;1999.90;999.90;;;;;;;15.96;34.63;101596.28;4825730;29;98000;-73
2021/07/19 09:27:52;;;;;;;1999.90;999.90;;;;;;;15.98;34.10;101594.53;4828112;29;97351;-73
2021/07/19 09:30:23;;;;;;;1999.90;999.90;;;;;;;16.01;33.66;101589.22;4825609;29;99753;-74
2021/07/19 09:32:53;;;;;;;1999.90;999.90;;;;;;;16.03;33.61;101587.44;4832812;29;101765;-74
2021/07/19 09:35:21;;;;;;;1999.90;999.90;;;;;;;16.04;33.93;101581.22;4827175;29;97154;-72
2021/07/19 09:37:49;;;;;;;1999.90;999.90;;;;;;;16.08;33.77;101580.38;4824801;29;97707;-73
2021/07/19 09:40:16;;;;;;;1999.90;999.90;;;;;;;16.06;33.71;101591.97;4824745;29;100826;-74
2021/07/19 09:42:44;;;;;;;1999.90;999.90;;;;;;;15.97;33.95;101581.09;4826882;29;98200;-74
2021/07/19 09:45:24;;;;;;;1999.90;999.90;;;;;;;15.95;33.92;101582.84;4827315;29;97332;-73
2021/07/19 09:48:00;;;;;;;1999.90;999.90;;;;;;;15.99;33.80;101576.63;4826042;29;97107;-73
2021/07/19 09:50:37;;;;;;;1999.90;999.90;;;;;;;15.99;34.01;101576.63;4825162;29;97975;-72
2021/07/19 09:53:05;;;;;;;1999.90;999.90;;;;;;;15.99;34.14;101574.88;4825934;29;98286;-72
2021/07/19 09:55:33;;;;;;;1999.90;999.90;;;;;;;16.00;33.71;101576.69;4825125;29;97640;-72
2021/07/19 09:58:02;;;;;;;1999.90;999.90;;;;;;;16.02;34.12;101574.91;4855204;28;98507;-72
2021/07/19 10:00:32;;;;;;;1999.90;999.90;;;;;;;16.06;33.99;101576.75;4827123;29;97681;-72
2021/07/19 10:03:13;;;;;;;1999.90;999.90;;;;;;;16.08;33.99;101569.63;4825063;29;99159;-72
2021/07/19 10:05:41;;;;;;;1999.90;999.90;;;;;;;16.12;33.76;101565.19;4824902;29;97293;-72
2021/07/19 10:08:23;;;;;;;1999.90;999.90;;;;;;;16.16;33.78;101572.38;4825102;29;97409;-73
2021/07/19 10:10:51;;;;;;;1999.90;999.90;;;;;;;16.16;33.70;101577.75;4808621;29;99099;-74
2021/07/19 10:13:19;;;;;;;1999.90;999.90;;;;;;;16.12;33.50;101564.28;4822993;29;98617;-73
2021/07/19 10:15:49;;;;;;;1999.90;999.90;;;;;;;16.06;33.49;101568.72;4824142;29;96793;-73
2021/07/19 10:18:18;;;;;;;1999.90;999.90;;;;;;;16.07;33.82;101570.50;4840201;29;96990;-73
2021/07/19 10:20:45;;;;;;;1999.90;999.90;;;;;;;16.04;33.98;101567.78;4827919;29;97768;-72
2021/07/19 10:23:13;;;;;;;1999.90;999.90;;;;;;;16.01;33.88;101566.84;4809870;29;100484;-74
2021/07/19 10:25:41;;;;;;;1999.90;999.90;;;;;;;16.05;34.05;101560.59;4825120;29;97692;-74
2021/07/19 10:28:09;;;;;;;1999.90;999.90;;;;;;;16.13;33.83;101568.75;4826444;29;97085;-74
2021/07/19 10:30:37;;;;;;;1999.90;999.90;;;;;;;16.15;34.36;101561.63;4831219;29;99663;-73
2021/07/19 10:33:06;;;;;;;1999.90;999.90;;;;;;;16.17;33.89;101552.69;4821628;29;98669;-73
2021/07/19 10:35:34;;;;;;;1999.90;999.90;;;;;;;16.23;33.88;101549.19;4857042;28;97004;-74
2021/07/19 10:38:26;;;;;;;1999.90;999.90;;;;;;;16.34;33.79;101556.47;4824996;29;97267;-73
2021/07/19 10:40:54;;;;;;;1999.90;999.90;;;;;;;16.39;33.75;101551.13;4828606;29;97749;-73
2021/07/19 10:43:24;;;;;;;1999.90;999.90;;;;;;;16.46;33.34;101555.66;4828117;29;98068;-73
2021/07/19 10:45:54;;;;;;;1999.90;999.90;;;;;;;16.54;33.41;101549.47;4826418;29;98881;-71
2021/07/19 10:48:24;;;;;;;1999.90;999.90;;;;;;;16.60;33.63;101554.00;4823656;29;97993;-73
2021/07/19 10:50:53;;;;;;;1999.90;999.90;;;;;;;16.61;33.41;101550.44;4837516;29;98121;-72
2021/07/19 10:53:22;;;;;;;1999.90;999.90;;;;;;;16.54;33.36;101548.59;4825596;29;98049;-73
2021/07/19 10:56:04;;;;;;;1999.90;999.90;;;;;;;16.51;32.93;101548.53;4827149;29;97844;-73
2021/07/19 10:58:40;;;;;;;1999.90;999.90;;;;;;;16.48;32.97;101551.22;4828844;29;97056;-74
2021/07/19 11:01:19;;;;;;;1999.90;999.90;;;;;;;16.40;33.29;101550.22;4827407;29;100487;-73
2021/07/19 11:03:49;;;;;;;1999.90;999.90;;;;;;;16.44;33.12;101544.00;4843222;29;97153;-74